Timeline UpdatesTrip UpdatesNews PostsPvt PostsTravel TipsAdmin PostsConv PostsFollowed PostsChat RequestsBlog PostsPNR Posts

Disclaimer
Search
 
 
Mon Jul 28, 2014 11:48:08 ISTHomeTrainsΣChainsAtlasPNRForumGalleryNewsFAQTripsMembersLoginFeedback
Latest...
.
Sat Oct 19, 2013 (10:33AM)
⇐ Return Journey: Train# 12511

12512/Raptisagar SF Express

Nov 01 2013 (7:36AM)
Change Departure Station:
Change Arrival Station:
Post a Train Travel TipPost a Train Travel Tip **new
Post a Comment/Question/Picture/VideoPost a Comment/Question/Picture/Video
Pantry/Catering
✓ Pantry Car Avbl
✓ Catering Avbl
Loco/Rake Reversals
MAS/Chennai Central (12); LJN/Lucknow Junction (6); SRR/Shoranur Junction (7);
RSA - Rake Sharing
12511/12512/12589/12590/12591/12592
Rake/Coach Composition
<<<<<-Loco- SLR-UR-UR-UR-A1-B4-B3-B2-B1-PC-S12-S11-S10-S9-S8-S7-S6-S5-S4-S3-S2-S1-UR-UR-SLR.
Loco
#WAP 4 ED/AJJ/RPM Shed Till JHS & From JHS #WDM...
Read more...
3 A/G GD/JHS Shed.
News    PNR    Forum    Time-Table    Availability    Fare Chart    Map    Arr/Dep History    Trips    Gallery    ΣChains    X/O    Timeline    
Travel Time: 54h 10m    54 halts    Distance: 3097 km    Avg Speed: 57 km/hr
Type: SuperFast
Zone: NER/North Eastern
Departs @ 06:15 (Avg 6m late)
Platform# 3
S TW   
Trivandrum Central/TVC 
Arrives @ 12:25 +2 nights (Avg 2h 21m late)
Platform# 2
  T TF 
Gonda Junction/GD 

54 halts. 497 intermediate Stations between Trivandrum Central and Gonda Junction

Show ALL intermediate Stations  Show Old Time-Table

#CodeStation NameX/OArrivesAvgDepartsAvgHaltPFDay#KmSpeedElevZoneAddress
1TVC»Trivandrum Central (5)»  -06:15+6310.07012mSRThiruvananthapuram 695001, Kerala
2QLNKollam Junction (6)X  07:10+1407:15+135m2164.66416mSRKollam 0474-2746194, Kerala
3KYJKayamkulam Junction (5)X  07:53+1707:55+182m11105.44211mSRAlappuzha Ph;0479-2442042, Kerala
4HADHarippad (2)  08:14+1408:15+201m11118.7777mSRHaripad 0479-2412714, Kerala
5AMPAAmbalappuzha (1)  08:29+2608:30+271m11136.6736mSRph 0477-2272620, Kerala
6ALLPAlappuzha (3)  08:40+3108:43+313m11148.8478mSRPh:0477-2253965, Kerala
7SRTLCherthala (3)X  09:14+2309:15+241m21172.9387mSRPh: 0478- 2812500, Kerala
8ERSErnakulam Junction (South) (6)  10:08+1310:10+252m31206.3423mSRErnakulam 682016, Kerala
9AWYAluva (3)X  10:38+3210:40+332m31225.76912mSRPh: 0484-2624141, Kerala
10AFKAngamaly for Kalady (3)  10:48+3610:50+362m--1234.95716mSRPhone: 0484-2452340, Kerala
11CKIChalakkudy (3)  11:06+3711:08+372m21250.1649mSRPh: 0480- 2701368, Kerala
12IJKIrinjalakkuda (2)X  11:14+4011:16+392m--1256.64618mSRKalletumkara, Kerala
13TCRThrissur (4)X  11:47+3211:50+323m21280.3556mSRThrissur Tel: 0487 2423150, Kerala
14WKIWadakkanchery (2)X  12:08+3112:10+312m21296.72240mSRWadackanchery, Kerala
15SRRShoranur Junction (7)↵¶12:55+2113:05+3510m61313.35926mSRShoranur ph.no 0466-2222913, Kerala
16OTPOttappalam (2)X  13:18+4013:20+402m--1326.14730mSROttapalam, Kerala
17PGTPalakkad Junction (4)X  14:00+2614:05+275m--1357.64584mSRPalghat Tel: 0491 2555231, Kerala
18CBECoimbatore Main Junction (6)  15:20+2215:25+265m--1413.371416mSRCoimbatore 641001, Tamil Nadu
19TUPTiruppur (2)X  16:08+3316:10+332m21463.954305mSRTiruppur. Ph:0421-2200450, Tamil Nadu
20EDErode Junction (4)X  17:05+2517:15+3510m11513.874175mSRErode ph.no: 0424-2256111, Tamil Nadu
21SASalem Junction (6)  18:05+3918:10+395m--1575.674283mSRSalem, Tamil Nadu
22JTJJolarpettai Junction (5)X  19:48+4219:50+422m--1695.780405mSRJolarpettai, Tamil Nadu
23KPDKatpadi Junction (5)X  20:53+4820:55+482m21779.660213mSRVellore 632007, Tamil Nadu
24MASChennai Central (12)X↵¶23:05+3723:25+4220m31909.0639mSRChennai 600003, Tamil Nadu
25GDRGudur Junction (3)X  01:35+4001:37+412m221046.49219mSCRGudur, Andhra Pradesh
26NLRNellore (4)  02:02+5202:03+531m221084.98121mSCRNellore, Andhra Pradesh
27OGLOngole (3)X  03:29+1:0103:30+1:011m121201.78512mSCROngole, Andhra Pradesh
28CLXChirala (4)X  04:05+1:0804:06+1:071m321251.0458mSCRChirala, Andhra Pradesh
29BZAVijayawada Junction (10)X  06:05+5706:20+5815m1021339.98624mSCRVijayawada 520001, Andhra Pradesh
30KMTKhammam (2)X  07:30+5307:32+532m221440.360118mSCRKhammam 507001, Telangana
31WLWarangal (3)O  09:20+3909:22+422m221547.983271mSCRWarangal., Telangana
32RDMRamagundam (3)  10:35+5810:36+1:001m121649.075170mSCRKarimnagar Dist. Ph : 08728 - 255237, Telangana
33MCIManchiryal (3)X  10:47+1:0410:48+1:051m121662.857159mSCRAdilabad Dist., Telangana
34BPABellampalli (3)  11:09+1:0411:10+1:051m121682.689205mSCRTel:.08735 223298, Telangana
35SKZRSirpur Kaghaznagar (3)X  11:36+1:1711:37+1:171m121721.148181mSCRAdilabad Dist., Telangana
36BPQBalharshah Junction (5)X  13:05+4413:15+4610m421790.843188mCRBallarpur. Ph : 07172 - 240341, Maharashtra
37CDChandrapur Maharashtra (3)X  13:34+4613:35+481m--21804.687194mCRChandrapur 442401, Maharashtra
38HGTHinganghat (3)  14:34+1:0814:35+1:101m--21890.145228mCRHinganghat, Maharashtra
39SEGMSewagram Junction (5)X  15:19+5715:20+591m221923.254279mCRWardha, Maharashtra
40NGPNagpur Junction (8)X  16:45+5017:00+4615m121999.485314mCRNagpur 440001, Maharashtra
41PARPandhurna (2)  18:14+1:0518:15+1:071m--22103.762481mCRDistt: Chhindwara, Madhya Pradesh
42AMLAAmla Junction (5)  19:17+1:1919:19+1:192m322167.492733mCRAmla Distt. Betul, Madhya Pradesh
43BZUBetul (3)  19:34+1:2419:35+1:291m--22190.357644mCRBetul, Madhya Pradesh
44GDYAGhoradongri (3)X  20:13+1:2420:15+1:242m--22226.235410mCRBetul, Madhya Pradesh
45ETItarsi Junction (7)  22:15+4422:20+535m322296.552329mWCRItarsi 461111, Madhya Pradesh
46BPLBhopal Junction (6)X  00:05+5400:10+555m432388.370497mWCRBhopal, Madhya Pradesh
47LARLalitpur (3)  03:02+4703:04+472m332589.774373mNCRLalitpur, Uttar Pradesh
48JHSJhansi Junction (7)X04:17+5304:32+1:0715m132680.180259mNCRJhansi, Uttar Pradesh
49ORAIOrai (3)  05:58+1:1806:00+1:222m--32794.090139mNCROrai(05162-252206), Uttar Pradesh
50PHNPokhrayan (2)XO  06:32+1:3706:34+1:372m132841.935133mNCRPukhrayan, Uttar Pradesh
51CNBKanpur Central (10)X  08:15+1:1008:20+1:135m432900.347128mNCRKANPUR-208 001, Uttar Pradesh
52ONUnnao Junction (5)X  08:42+1:3408:43+1:351m332917.752129mNRUnnao, Uttar Pradesh
53LJNLucknow Junction (6)X09:45+1:4210:05+1:4520m132971.626126mNERLucknow, Uttar Pradesh
54BNZBadshahnagar (2)  10:30+1:5310:31+1:551m132982.646116mNERLucknow, Uttar Pradesh
55BBKBarabanki Junction (4)  11:03+2:0011:05+2:002m333007.267122mNRPin-225001, Uttar Pradesh
56GD•Gonda Junction (3)•  12:25+2:2112:30+2:225m233096.576110mNERGonda 271001, Uttar Pradesh
57MURMankapur Junction (5)  12:52+2:2312:54+2:222m--33124.471104mNERDistrict Gonda, Uttar Pradesh
58BSTBasti (4)X  13:45+2:1613:50+2:145m--33185.08190mNERBasti 272001, Uttar Pradesh
59KLDKhalilabad (3)  14:12+2:2214:14+2:232m--33214.53186mNERKhalilabad- 272175, Uttar Pradesh
60GKPGorakhpur Junction (10)  15:20+1:39-733248.4-84mNERGorakhpur 273001, Uttar Pradesh
Scroll to Top
Scroll to Bottom